Avondale, KY

12:42 AM CDT on August 29, 2016 (GMT -0500)
Ricks Place Paducah, KY | | Change Station

Elev 351 ft 37.07 °N, 88.62 °W | Updated 5 minutes ago

Clear
Clear
77.2 °F
Feels Like 79 °F
N
0.0
Wind Variable Wind from East

Today
High -- | Low -- °F
--% Chance of Precip.
Yesterday
High -- | Low -- °F
Precip. -- in
Pressure 30.11 in
Visibility 9.0 miles
Clouds Clear
Heat Index 79 °F
Dew Point 70 °F
Humidity 80%
Rainfall 0.00 in
Snow Depth Not available.
6:23 AM 7:26 PM
Waning Crescent, 11% visible
METAR KPAH 290453Z AUTO 00000KT 9SM CLR 23/22 A3012 RMK AO2 SLP195 T02330222
Pressure 30.11 in
Visibility 9.0 miles
Clouds Clear
Heat Index 79 °F
Dew Point 70 °F
Humidity 80%
Rainfall 0.00 in
Snow Depth Not available.
6:23 AM 7:26 PM
Waning Crescent, 11% visible
METAR KPAH 290453Z AUTO 00000KT 9SM CLR 23/22 A3012 RMK AO2 SLP195 T02330222

10-Day Weather Forecast

Almanac

Astronomy

Aug. 29, 2016 Rise Set
Actual Time
Civil Twilight
Nautical Twilight
Astronomical Twilight
Moon
Length of Visible Light
Length of Day
Tomorrow will be .
, % of the Moon is Illuminated

Today's Extremes

State Highs State Lows

Community

WunderPhotos

Upload Photos

1,935,800 photos uploaded!

WunderBlog® & News

Nearby

Air Quality

  Air Quality AQ Index Pollutant
Not available.

Snow Depth

Station Depth Elevation

Earthquake Activity

City Distance Mag. Time & Date
Minimum magnitude displayed is 2.5.

Coastal Water Temperatures

Place Temperature

Stations

Nearby Weather Stations

Station Location Temp. Windchill Dew Point Humidity Wind Precip. Elev Updated Type
                   

Watches & Warnings

There are currently no watches in effect.